createdAt,value
2022-10-24T00:01:10.372Z,27.60
2022-10-24T00:06:14.628Z,20.50
2022-10-24T00:11:20.922Z,20.75
2022-10-24T00:16:23.798Z,23.83
2022-10-24T00:21:26.582Z,20.73
2022-10-24T00:26:31.047Z,20.33
2022-10-24T00:31:33.931Z,19.48
2022-10-24T00:36:36.976Z,22.98
2022-10-24T00:41:43.722Z,25.85
2022-10-24T00:46:50.273Z,17.67
2022-10-24T00:51:57.850Z,18.80
2022-10-24T00:57:07.171Z,18.42
2022-10-24T01:02:10.357Z,16.92
2022-10-24T01:07:24.354Z,17.20
2022-10-24T01:12:38.376Z,15.93
2022-10-24T01:17:47.266Z,13.77
2022-10-24T01:23:05.103Z,15.70
2022-10-24T01:28:14.994Z,15.90
2022-10-24T01:33:28.106Z,14.35
2022-10-24T01:38:36.033Z,21.08
2022-10-24T01:43:44.228Z,20.77
2022-10-24T01:48:53.954Z,18.15
2022-10-24T01:53:57.651Z,15.07
2022-10-24T01:59:07.851Z,18.30
2022-10-24T02:04:13.638Z,16.98
2022-10-24T02:09:19.148Z,19.15
2022-10-24T02:14:26.651Z,16.45
2022-10-24T02:19:33.095Z,15.95
2022-10-24T02:24:40.501Z,20.15
2022-10-24T02:29:48.186Z,16.05
2022-10-24T02:34:52.886Z,15.20
2022-10-24T02:39:57.064Z,18.95
2022-10-24T02:45:00.231Z,20.92
2022-10-24T02:50:04.638Z,19.38
2022-10-24T02:55:07.933Z,19.45
2022-10-24T03:00:11.966Z,20.00
2022-10-24T03:05:16.100Z,23.73
2022-10-24T03:10:19.254Z,24.00
2022-10-24T03:15:22.143Z,21.67
2022-10-24T03:20:26.384Z,21.80
2022-10-24T03:25:29.155Z,21.70
2022-10-24T03:30:31.936Z,22.25
2022-10-24T03:35:37.074Z,22.10
2022-10-24T03:40:42.302Z,20.00
2022-10-24T03:45:45.447Z,22.83
2022-10-24T03:50:49.554Z,23.27
2022-10-24T03:55:52.353Z,25.25
2022-10-24T04:00:58.339Z,21.02
2022-10-24T04:06:02.480Z,20.63
2022-10-24T04:11:05.530Z,18.88
2022-10-24T04:16:08.943Z,23.13
2022-10-24T04:21:15.869Z,20.08
2022-10-24T04:26:20.689Z,19.48
2022-10-24T04:31:23.832Z,20.98
2022-10-24T04:36:28.010Z,18.58
2022-10-24T04:41:30.758Z,21.98
2022-10-24T04:46:33.759Z,17.38
2022-10-24T04:51:37.870Z,17.58
2022-10-24T04:56:40.629Z,17.35
2022-10-24T05:01:43.452Z,16.90
2022-10-24T05:06:47.703Z,21.10
2022-10-24T05:11:50.433Z,20.15
2022-10-24T05:16:53.576Z,14.77
2022-10-24T05:21:57.728Z,20.05
2022-10-24T05:27:00.488Z,15.65
2022-10-24T05:32:03.235Z,17.60
2022-10-24T05:37:07.380Z,14.85
2022-10-24T05:42:11.089Z,16.15
2022-10-24T05:47:14.076Z,14.52
2022-10-24T05:52:18.189Z,16.15
2022-10-24T05:57:20.942Z,18.35
2022-10-24T06:02:23.847Z,15.02
2022-10-24T06:07:28.136Z,17.75
2022-10-24T06:12:30.930Z,17.02
2022-10-24T06:17:34.083Z,19.27
2022-10-24T06:22:38.235Z,14.75
2022-10-24T06:27:41.353Z,11.38
2022-10-24T06:32:44.784Z,15.07
2022-10-24T06:37:49.401Z,13.90
2022-10-24T06:42:52.462Z,9.88
2022-10-24T06:47:55.546Z,16.48
2022-10-24T06:52:59.993Z,12.25
2022-10-24T06:58:02.763Z,15.88
2022-10-24T07:03:05.621Z,10.57
2022-10-24T07:08:10.934Z,10.82
2022-10-24T07:13:13.691Z,12.32
2022-10-24T07:18:16.626Z,11.55
2022-10-24T07:23:21.002Z,11.25
2022-10-24T07:28:23.782Z,12.32
2022-10-24T07:33:28.607Z,13.25
2022-10-24T07:38:32.724Z,8.32
2022-10-24T07:43:35.540Z,8.98
2022-10-24T07:48:39.843Z,9.93
2022-10-24T07:53:44.531Z,8.98
2022-10-24T07:58:48.623Z,12.20
2022-10-24T08:03:51.764Z,9.90
2022-10-24T08:08:55.923Z,10.30
2022-10-24T08:13:58.756Z,7.53
2022-10-24T08:19:01.534Z,11.55
2022-10-24T08:24:06.058Z,11.52
2022-10-24T08:29:11.443Z,10.70
2022-10-24T08:34:14.540Z,8.65
2022-10-24T08:39:19.688Z,10.20
2022-10-24T08:44:27.828Z,12.75
2022-10-24T08:49:38.442Z,8.38
2022-10-24T08:54:45.468Z,9.75
2022-10-24T08:59:48.945Z,11.02
2022-10-24T09:04:56.499Z,10.70
2022-10-24T09:10:07.714Z,9.82
2022-10-24T09:15:17.035Z,8.98
2022-10-24T09:20:25.465Z,7.60
2022-10-24T09:25:33.254Z,10.68
2022-10-24T09:30:37.503Z,9.27
2022-10-24T09:35:41.057Z,11.05
2022-10-24T09:40:51.319Z,10.68
2022-10-24T09:46:03.575Z,8.98
2022-10-24T09:51:08.188Z,6.15
2022-10-24T09:56:14.383Z,10.73
2022-10-24T10:01:21.148Z,7.63
2022-10-24T10:06:24.044Z,8.23
2022-10-24T10:11:30.792Z,12.20
2022-10-24T10:16:37.538Z,8.18
2022-10-24T10:21:55.151Z,10.32
2022-10-24T10:26:59.266Z,10.07
2022-10-24T10:32:13.504Z,10.20
2022-10-24T10:37:26.594Z,13.27
2022-10-24T10:42:37.285Z,15.27
2022-10-24T10:47:52.494Z,8.80
2022-10-24T10:53:01.538Z,15.68
2022-10-24T10:58:21.379Z,10.85
2022-10-24T11:03:37.887Z,9.07
2022-10-24T11:09:07.417Z,11.75
2022-10-24T11:14:22.878Z,12.60
2022-10-24T11:19:33.214Z,10.52
2022-10-24T11:24:44.132Z,8.32
2022-10-24T11:29:55.017Z,5.15
2022-10-24T11:35:02.351Z,8.15
2022-10-24T11:40:12.161Z,6.65
2022-10-24T11:45:18.827Z,8.15
2022-10-24T11:50:28.455Z,5.35
2022-10-24T11:55:38.815Z,6.72
2022-10-24T12:01:01.959Z,5.82
2022-10-24T12:06:23.606Z,3.88
2022-10-24T12:11:53.162Z,7.20
2022-10-24T12:17:16.924Z,5.82
2022-10-24T12:22:23.768Z,5.90
2022-10-24T12:27:35.510Z,6.85
2022-10-24T12:32:42.385Z,3.78
2022-10-24T12:37:46.937Z,3.13
2022-10-24T12:43:14.789Z,5.22
2022-10-24T12:48:32.895Z,8.05
2022-10-24T12:53:38.931Z,9.48
2022-10-24T12:58:44.090Z,5.80
2022-10-24T13:04:02.763Z,3.22
2022-10-24T13:09:26.636Z,8.95
2022-10-24T13:14:50.002Z,3.88
2022-10-24T13:20:07.415Z,1.45
2022-10-24T13:25:33.676Z,2.70
2022-10-24T13:30:36.520Z,4.00
2022-10-24T13:35:41.143Z,7.03
2022-10-24T13:40:45.703Z,4.97
2022-10-24T13:45:58.439Z,0.50
2022-10-24T13:51:07.583Z,1.58
2022-10-24T13:56:13.464Z,4.30
2022-10-24T14:01:20.486Z,2.03
2022-10-24T14:06:27.750Z,2.75
2022-10-24T14:11:32.105Z,2.78
2022-10-24T14:16:35.801Z,8.25
2022-10-24T14:21:43.578Z,5.20
2022-10-24T14:26:47.958Z,5.50
2022-10-24T14:31:57.381Z,4.35
2022-10-24T14:37:03.940Z,3.78
2022-10-24T14:42:13.357Z,5.28
2022-10-24T14:47:23.620Z,3.88
2022-10-24T14:52:32.150Z,6.47
2022-10-24T14:57:37.738Z,4.15
2022-10-24T15:02:43.284Z,2.58
2022-10-24T15:08:09.302Z,2.42
2022-10-24T15:13:14.401Z,1.75
2022-10-24T15:18:20.811Z,3.50
2022-10-24T15:23:28.874Z,4.78
2022-10-24T15:28:47.093Z,1.25
2022-10-24T15:33:49.978Z,3.50
2022-10-24T15:38:59.215Z,2.15
2022-10-24T15:44:02.681Z,2.72
2022-10-24T15:49:05.447Z,3.03
2022-10-24T15:54:12.333Z,3.05
2022-10-24T15:59:15.201Z,2.08
2022-10-24T16:04:18.807Z,5.30
2022-10-24T16:09:25.052Z,10.23
2022-10-24T16:14:28.441Z,5.30
2022-10-24T16:19:31.193Z,2.30
2022-10-24T16:24:35.330Z,4.07
2022-10-24T16:29:38.067Z,2.78
2022-10-24T16:34:40.818Z,2.95
2022-10-24T16:39:44.900Z,2.78
2022-10-24T16:44:47.624Z,4.30
2022-10-24T16:49:50.465Z,5.13
2022-10-24T16:54:55.061Z,4.55
2022-10-24T16:59:58.057Z,3.47
2022-10-24T17:05:00.994Z,5.00
2022-10-24T17:10:05.666Z,2.72
2022-10-24T17:15:09.455Z,5.50
2022-10-24T17:20:13.631Z,5.65
2022-10-24T17:25:21.312Z,3.00
2022-10-24T17:30:26.196Z,6.82
2022-10-24T17:35:30.611Z,6.28
2022-10-24T17:40:42.306Z,9.40
2022-10-24T17:45:45.676Z,14.02
2022-10-24T17:50:48.639Z,11.98
2022-10-24T17:55:52.841Z,7.28
2022-10-24T18:00:55.613Z,5.53
2022-10-24T18:05:59.459Z,5.57
2022-10-24T18:11:13.178Z,8.00
2022-10-24T18:16:18.186Z,6.82
2022-10-24T18:21:24.273Z,6.85
2022-10-24T18:26:29.472Z,7.57
2022-10-24T18:31:33.992Z,8.43
2022-10-24T18:36:37.573Z,6.22
2022-10-24T18:41:50.039Z,7.55
2022-10-24T18:46:56.350Z,7.57
2022-10-24T18:52:14.807Z,5.50
2022-10-24T18:57:23.370Z,6.00
2022-10-24T19:02:32.541Z,6.05
2022-10-24T19:07:35.668Z,5.97
2022-10-24T19:12:44.929Z,6.43
2022-10-24T19:17:49.475Z,7.25
2022-10-24T19:22:52.801Z,8.60
2022-10-24T19:27:56.912Z,8.52
2022-10-24T19:32:59.675Z,5.78
2022-10-24T19:38:02.416Z,7.13
2022-10-24T19:43:06.488Z,6.43
2022-10-24T19:48:09.303Z,6.57
2022-10-24T19:53:14.189Z,6.07
2022-10-24T19:58:20.009Z,6.25
2022-10-24T20:03:22.794Z,9.02
2022-10-24T20:08:25.701Z,7.25
2022-10-24T20:13:30.210Z,7.65
2022-10-24T20:18:34.486Z,8.52
2022-10-24T20:23:38.037Z,9.00
2022-10-24T20:28:44.086Z,12.07
2022-10-24T20:33:46.855Z,9.75
2022-10-24T20:38:49.672Z,7.03
2022-10-24T20:43:55.580Z,6.65
2022-10-24T20:48:58.455Z,8.38
2022-10-24T20:54:01.889Z,8.60
2022-10-24T20:59:06.183Z,13.43
2022-10-24T21:04:09.177Z,6.45
2022-10-24T21:09:11.952Z,11.00
2022-10-24T21:14:17.942Z,7.85
2022-10-24T21:19:20.707Z,8.05
2022-10-24T21:24:23.476Z,6.97
2022-10-24T21:29:33.082Z,6.50
2022-10-24T21:34:36.618Z,8.55
2022-10-24T21:39:39.363Z,8.00
2022-10-24T21:44:43.507Z,7.40
2022-10-24T21:49:46.271Z,6.40
2022-10-24T21:54:49.057Z,7.20
2022-10-24T21:59:53.167Z,17.83
2022-10-24T22:04:55.919Z,7.38
2022-10-24T22:11:00.825Z,11.70
2022-10-24T22:16:51.235Z,8.35
2022-10-24T22:22:31.774Z,9.30
2022-10-24T22:59:19.560Z,11.43
2022-10-24T23:06:03.694Z,7.10
2022-10-24T23:12:12.743Z,7.85
2022-10-24T23:25:27.654Z,6.85
2022-10-24T23:57:32.104Z,10.57
